createdAt,value
2018-07-30T00:04:33.015Z,1014
2018-07-30T00:09:32.963Z,1014
2018-07-30T00:14:45.516Z,1014
2018-07-30T00:19:45.423Z,1014
2018-07-30T00:24:45.447Z,1014.1
2018-07-30T00:29:45.354Z,1014
2018-07-30T00:34:45.228Z,1014.1
2018-07-30T00:39:45.362Z,1014.1
2018-07-30T00:44:45.387Z,1014.1
2018-07-30T00:49:45.862Z,1014.2
2018-07-30T00:54:45.761Z,1014.1
2018-07-30T00:59:58.074Z,1014.4
2018-07-30T01:04:58.020Z,1014.4
2018-07-30T01:09:57.798Z,1014.4
2018-07-30T01:14:57.797Z,1014.4
2018-07-30T01:19:57.823Z,1014.4
2018-07-30T01:24:57.820Z,1014.5
2018-07-30T01:29:57.838Z,1014.4
2018-07-30T01:34:57.833Z,1014.4
2018-07-30T01:39:57.814Z,1014.4
2018-07-30T01:45:09.613Z,1014.4
2018-07-30T01:50:09.489Z,1014.4
2018-07-30T01:55:09.531Z,1014.4
2018-07-30T02:00:09.345Z,1014.5
2018-07-30T02:05:09.488Z,1014.4
2018-07-30T02:10:09.364Z,1014.4
2018-07-30T02:15:09.335Z,1014.5
2018-07-30T02:20:11.039Z,1014.6
2018-07-30T02:25:10.778Z,1014.6
2018-07-30T02:30:23.269Z,1014.7
2018-07-30T02:35:23.216Z,1014.7
2018-07-30T02:40:23.108Z,1014.8
2018-07-30T02:45:23.116Z,1015
2018-07-30T02:50:23.000Z,1014.8
2018-07-30T02:55:23.129Z,1014.8
2018-07-30T03:00:23.019Z,1014.7
2018-07-30T03:05:23.009Z,1014.8
2018-07-30T03:10:23.129Z,1015
2018-07-30T03:15:34.926Z,1014.9
2018-07-30T03:20:34.776Z,1015
2018-07-30T03:25:34.802Z,1015.1
2018-07-30T03:30:34.666Z,1015
2018-07-30T03:35:34.678Z,1015
2018-07-30T03:40:34.685Z,1015.1
2018-07-30T03:45:34.679Z,1015.1
2018-07-30T03:50:34.711Z,1015.1
2018-07-30T03:55:34.845Z,1015.1
2018-07-30T04:00:47.275Z,1015.2
2018-07-30T04:05:47.327Z,1015.2
2018-07-30T04:10:47.210Z,1015.2
2018-07-30T04:15:47.169Z,1015.2
2018-07-30T04:20:47.504Z,1015.3
2018-07-30T04:25:47.529Z,1015.1
2018-07-30T04:30:47.579Z,1015.1
2018-07-30T04:35:47.269Z,1015.2
2018-07-30T04:40:47.265Z,1015.3
2018-07-30T04:45:59.426Z,1015.4
2018-07-30T04:50:59.229Z,1015.3
2018-07-30T04:55:59.120Z,1015.2
2018-07-30T05:00:59.116Z,1015.2
2018-07-30T05:05:59.363Z,1015.3
2018-07-30T05:10:59.287Z,1015.2
2018-07-30T05:15:59.341Z,1015.3
2018-07-30T05:20:59.209Z,1015.2
2018-07-30T05:25:59.334Z,1015.2
2018-07-30T05:31:11.128Z,1015.3
2018-07-30T05:36:11.029Z,1015.1
2018-07-30T05:41:10.862Z,1015.2
2018-07-30T05:46:11.026Z,1015.2
2018-07-30T05:51:11.030Z,1015.3
2018-07-30T05:56:11.060Z,1015.4
2018-07-30T06:01:11.020Z,1015.3
2018-07-30T06:06:11.447Z,1015.2
2018-07-30T06:11:11.393Z,1015.2
2018-07-30T06:16:23.997Z,1015.1
2018-07-30T06:21:23.748Z,1015.2
2018-07-30T06:26:23.897Z,1015.1
2018-07-30T06:31:23.722Z,1015.1
2018-07-30T06:36:23.726Z,1015.1
2018-07-30T06:41:24.281Z,1015.1
2018-07-30T06:46:23.735Z,1015.1
2018-07-30T06:51:24.072Z,1015.1
2018-07-30T06:56:24.007Z,1015.1
2018-07-30T07:01:36.799Z,1015.1
2018-07-30T07:06:36.526Z,1015.2
2018-07-30T07:11:36.677Z,1015.1
2018-07-30T07:16:37.043Z,1015.1
2018-07-30T07:21:36.929Z,1015.1
2018-07-30T07:26:36.783Z,1015.1
2018-07-30T07:31:36.705Z,1015.1
2018-07-30T07:36:37.675Z,1015.1
2018-07-30T07:41:37.400Z,1015
2018-07-30T07:46:49.914Z,1014.9
2018-07-30T07:51:49.677Z,1014.9
2018-07-30T07:56:49.665Z,1014.9
2018-07-30T08:01:49.794Z,1014.9
2018-07-30T08:06:49.828Z,1014.9
2018-07-30T08:11:49.862Z,1014.8
2018-07-30T08:16:49.850Z,1014.8
2018-07-30T08:21:50.181Z,1014.8
2018-07-30T08:26:50.143Z,1014.8
2018-07-30T08:32:02.141Z,1014.9
2018-07-30T08:37:02.067Z,1014.9
2018-07-30T08:42:01.978Z,1014.8
2018-07-30T08:47:01.852Z,1014.9
2018-07-30T08:52:01.850Z,1014.9
2018-07-30T08:57:01.971Z,1014.8
2018-07-30T09:02:02.014Z,1014.8
2018-07-30T09:07:02.693Z,1014.8
2018-07-30T09:12:02.287Z,1014.8
2018-07-30T09:17:15.037Z,1014.8
2018-07-30T09:22:14.610Z,1014.8
2018-07-30T09:27:14.598Z,1014.7
2018-07-30T09:32:14.600Z,1014.8
2018-07-30T09:37:14.740Z,1014.7
2018-07-30T09:42:14.798Z,1014.7
2018-07-30T09:47:14.815Z,1014.5
2018-07-30T09:52:16.863Z,1014.4
2018-07-30T09:57:16.600Z,1014.4
2018-07-30T10:02:27.339Z,1014.4
2018-07-30T10:07:27.585Z,1014.3
2018-07-30T10:12:27.280Z,1014.3
2018-07-30T10:17:27.319Z,1014.3
2018-07-30T10:22:27.229Z,1014.2
2018-07-30T10:27:27.276Z,1014.1
2018-07-30T10:32:27.317Z,1014.1
2018-07-30T10:37:27.270Z,1014.1
2018-07-30T10:42:27.633Z,1014
2018-07-30T10:47:39.700Z,1014
2018-07-30T10:52:39.544Z,1014.1
2018-07-30T10:57:39.321Z,1014
2018-07-30T11:02:39.500Z,1014.1
2018-07-30T11:07:39.553Z,1014.3
2018-07-30T11:12:39.562Z,1014.2
2018-07-30T11:17:39.359Z,1014.2
2018-07-30T11:22:39.416Z,1014.3
2018-07-30T11:27:39.481Z,1014.2
2018-07-30T11:32:53.148Z,1014.1
2018-07-30T11:37:52.861Z,1014.1
2018-07-30T11:42:53.069Z,1014
2018-07-30T11:47:52.996Z,1013.8
2018-07-30T11:52:53.042Z,1013.7
2018-07-30T11:57:53.100Z,1013.6
2018-07-30T12:02:53.144Z,1013.6
2018-07-30T12:07:53.302Z,1013.5
2018-07-30T12:12:52.960Z,1013.4
2018-07-30T12:18:05.325Z,1013.5
2018-07-30T12:23:05.057Z,1013.5
2018-07-30T12:28:04.825Z,1013.3
2018-07-30T12:33:05.000Z,1013.3
2018-07-30T12:38:05.071Z,1013.4
2018-07-30T12:43:05.094Z,1013.4
2018-07-30T12:48:04.997Z,1013.5
2018-07-30T12:53:05.967Z,1013.4
2018-07-30T12:58:05.844Z,1013.4
2018-07-30T13:03:18.328Z,1013.5
2018-07-30T13:08:17.890Z,1013.7
2018-07-30T13:13:17.655Z,1013.7
2018-07-30T13:18:17.540Z,1013.9
2018-07-30T13:23:17.549Z,1013.8
2018-07-30T13:28:17.546Z,1013.9
2018-07-30T13:33:17.561Z,1013.7
2018-07-30T13:38:17.543Z,1013.7
2018-07-30T13:43:17.536Z,1013.7
2018-07-30T13:48:31.855Z,1013.6
2018-07-30T13:53:32.384Z,1013.4
2018-07-30T13:58:29.104Z,1013.4
2018-07-30T14:03:28.790Z,1013.4
2018-07-30T14:08:30.040Z,1013.4
2018-07-30T14:13:30.387Z,1013.5
2018-07-30T14:18:31.127Z,1013.5
2018-07-30T14:23:40.251Z,1013.5
2018-07-30T14:28:35.304Z,1013.4
2018-07-30T14:33:35.554Z,1013.5
2018-07-30T14:38:35.439Z,1013.4
2018-07-30T14:43:35.504Z,1013.3
2018-07-30T14:48:35.465Z,1013.3
2018-07-30T14:53:35.356Z,1013.2
2018-07-30T14:58:35.346Z,1013.2
2018-07-30T15:03:35.542Z,1013.1
2018-07-30T15:08:35.330Z,1013
2018-07-30T15:13:38.282Z,1013.1
2018-07-30T15:18:38.188Z,1013.2
2018-07-30T15:23:38.553Z,1013.2
2018-07-30T15:28:39.885Z,1013.2
2018-07-30T15:33:38.749Z,1013.3
2018-07-30T15:38:42.121Z,1013.2
2018-07-30T15:43:44.972Z,1013.2
2018-07-30T15:48:41.469Z,1013.2
2018-07-30T15:53:42.357Z,1013.2
2018-07-30T15:58:42.887Z,1013.2
2018-07-30T16:03:55.635Z,1013.2
2018-07-30T16:08:55.187Z,1013.2
2018-07-30T16:13:55.670Z,1013.3
2018-07-30T16:18:55.946Z,1013.3
2018-07-30T16:24:01.756Z,1013.3
2018-07-30T16:29:12.672Z,1013.3
2018-07-30T16:34:12.117Z,1013.3
2018-07-30T16:39:10.701Z,1013.3
2018-07-30T16:44:11.572Z,1013.4
2018-07-30T16:49:13.497Z,1013.4
2018-07-30T16:54:16.936Z,1013.3
2018-07-30T16:59:11.716Z,1013.3
2018-07-30T17:04:11.441Z,1013.4
2018-07-30T17:09:12.332Z,1013.3
2018-07-30T17:14:11.468Z,1013.4
2018-07-30T17:19:16.563Z,1013.4
2018-07-30T17:24:16.654Z,1013.5
2018-07-30T17:29:19.305Z,1013.4
2018-07-30T17:34:19.182Z,1013.5
2018-07-30T17:39:30.852Z,1013.5
2018-07-30T17:44:30.586Z,1013.5
2018-07-30T17:49:30.851Z,1013.6
2018-07-30T17:54:30.656Z,1013.6
2018-07-30T17:59:30.829Z,1013.6
2018-07-30T18:04:30.564Z,1013.7
2018-07-30T18:09:30.624Z,1013.7
2018-07-30T18:14:33.900Z,1013.8
2018-07-30T18:19:33.619Z,1013.8
2018-07-30T18:24:46.483Z,1013.9
2018-07-30T18:29:46.439Z,1013.9
2018-07-30T18:34:46.919Z,1013.9
2018-07-30T18:39:45.883Z,1014
2018-07-30T18:45:01.096Z,1014.1
2018-07-30T18:50:00.838Z,1014.3
2018-07-30T18:55:00.894Z,1014.3
2018-07-30T19:00:00.836Z,1014.3
2018-07-30T19:05:00.869Z,1014.3
2018-07-30T19:10:00.848Z,1014.5
2018-07-30T19:15:01.036Z,1014.6
2018-07-30T19:20:03.897Z,1014.6
2018-07-30T19:25:00.858Z,1014.6
2018-07-30T19:30:17.277Z,1014.6
2018-07-30T19:35:16.235Z,1014.6
2018-07-30T19:40:16.327Z,1014.7
2018-07-30T19:45:16.973Z,1014.8
2018-07-30T19:50:16.229Z,1014.9
2018-07-30T19:55:16.531Z,1014.9
2018-07-30T20:00:16.209Z,1014.9
2018-07-30T20:05:19.091Z,1014.9
2018-07-30T20:10:19.200Z,1014.9
2018-07-30T20:15:31.316Z,1015
2018-07-30T20:20:32.322Z,1014.9
2018-07-30T20:25:31.130Z,1014.9
2018-07-30T20:30:30.988Z,1015
2018-07-30T20:35:31.019Z,1015.1
2018-07-30T20:40:30.999Z,1015.1
2018-07-30T20:45:31.260Z,1015.1
2018-07-30T20:50:32.305Z,1015.2
2018-07-30T20:55:32.211Z,1015.4
2018-07-30T21:00:44.158Z,1015.4
2018-07-30T21:05:43.878Z,1015.4
2018-07-30T21:10:43.860Z,1015.4
2018-07-30T21:15:43.925Z,1015.4
2018-07-30T21:20:43.897Z,1015.4
2018-07-30T21:25:43.891Z,1015.4
2018-07-30T21:30:44.170Z,1015.4
2018-07-30T21:35:43.924Z,1015.5
2018-07-30T21:40:43.943Z,1015.7
2018-07-30T21:45:55.735Z,1015.7
2018-07-30T21:50:55.558Z,1015.7
2018-07-30T21:55:55.365Z,1015.7
2018-07-30T22:00:55.367Z,1015.7
2018-07-30T22:05:55.807Z,1015.8
2018-07-30T22:10:57.219Z,1015.8
2018-07-30T22:15:55.416Z,1015.9
2018-07-30T22:25:59.754Z,1016.1
2018-07-30T22:31:10.363Z,1016.1
2018-07-30T22:36:10.374Z,1016
2018-07-30T22:41:10.310Z,1016
2018-07-30T22:46:10.678Z,1016.1
2018-07-30T22:51:10.273Z,1016.1
2018-07-30T22:56:10.302Z,1016.1
2018-07-30T23:01:10.683Z,1016.3
2018-07-30T23:06:11.699Z,1016.2
2018-07-30T23:11:11.312Z,1016.2
2018-07-30T23:16:24.947Z,1016.2
2018-07-30T23:21:24.177Z,1016.2
2018-07-30T23:26:24.194Z,1016.1
2018-07-30T23:31:24.183Z,1016.2
2018-07-30T23:36:24.234Z,1016.2
2018-07-30T23:41:24.209Z,1016.2
2018-07-30T23:46:24.261Z,1016.2
2018-07-30T23:51:27.881Z,1016.1
2018-07-30T23:56:27.606Z,1016.1
